sensor_id;sensor_type;location;lat;lon;timestamp;P1;durP1;ratioP1;P2;durP2;ratioP2
7883;SDS011;3987;51.458;7.238;2023-02-10T00:09:13;48.70;;;29.60;;
7883;SDS011;3987;51.458;7.238;2023-02-10T00:24:14;53.10;;;30.40;;
7883;SDS011;3987;51.458;7.238;2023-02-10T00:39:14;54.27;;;30.80;;
7883;SDS011;3987;51.458;7.238;2023-02-10T00:54:15;52.10;;;32.33;;
7883;SDS011;3987;51.458;7.238;2023-02-10T01:09:15;59.47;;;33.53;;
7883;SDS011;3987;51.458;7.238;2023-02-10T01:24:17;56.00;;;32.93;;
7883;SDS011;3987;51.458;7.238;2023-02-10T01:39:18;72.40;;;34.13;;
7883;SDS011;3987;51.458;7.238;2023-02-10T01:54:19;56.47;;;32.93;;
7883;SDS011;3987;51.458;7.238;2023-02-10T02:09:22;60.27;;;34.53;;
7883;SDS011;3987;51.458;7.238;2023-02-10T02:24:31;62.67;;;34.83;;
7883;SDS011;3987;51.458;7.238;2023-02-10T02:39:52;69.30;;;36.27;;
7883;SDS011;3987;51.458;7.238;2023-02-10T02:54:55;64.63;;;36.03;;
7883;SDS011;3987;51.458;7.238;2023-02-10T03:09:59;66.47;;;35.53;;
7883;SDS011;3987;51.458;7.238;2023-02-10T03:25:00;69.23;;;37.83;;
7883;SDS011;3987;51.458;7.238;2023-02-10T03:40:00;74.13;;;37.57;;
7883;SDS011;3987;51.458;7.238;2023-02-10T03:55:01;79.87;;;37.63;;
7883;SDS011;3987;51.458;7.238;2023-02-10T04:10:01;75.77;;;37.37;;
7883;SDS011;3987;51.458;7.238;2023-02-10T04:25:02;68.73;;;38.27;;
7883;SDS011;3987;51.458;7.238;2023-02-10T04:40:03;85.50;;;41.15;;
7883;SDS011;3987;51.458;7.238;2023-02-10T04:55:04;73.80;;;37.53;;
7883;SDS011;3987;51.458;7.238;2023-02-10T05:10:04;75.07;;;39.70;;
7883;SDS011;3987;51.458;7.238;2023-02-10T05:25:05;70.97;;;39.37;;
7883;SDS011;3987;51.458;7.238;2023-02-10T05:40:06;80.20;;;40.90;;
7883;SDS011;3987;51.458;7.238;2023-02-10T05:55:07;79.97;;;39.58;;
7883;SDS011;3987;51.458;7.238;2023-02-10T06:10:07;85.80;;;40.27;;
7883;SDS011;3987;51.458;7.238;2023-02-10T06:25:08;85.63;;;40.50;;
7883;SDS011;3987;51.458;7.238;2023-02-10T06:40:08;81.03;;;38.87;;
7883;SDS011;3987;51.458;7.238;2023-02-10T06:55:10;82.10;;;40.50;;
7883;SDS011;3987;51.458;7.238;2023-02-10T07:10:11;80.73;;;38.60;;
7883;SDS011;3987;51.458;7.238;2023-02-10T07:25:11;88.07;;;39.30;;
7883;SDS011;3987;51.458;7.238;2023-02-10T07:40:12;81.03;;;38.73;;
7883;SDS011;3987;51.458;7.238;2023-02-10T07:55:12;81.17;;;38.73;;
7883;SDS011;3987;51.458;7.238;2023-02-10T08:10:12;85.83;;;40.23;;
7883;SDS011;3987;51.458;7.238;2023-02-10T08:25:13;95.20;;;43.20;;
7883;SDS011;3987;51.458;7.238;2023-02-10T08:40:13;83.90;;;39.60;;
7883;SDS011;3987;51.458;7.238;2023-02-10T08:55:14;88.67;;;40.83;;
7883;SDS011;3987;51.458;7.238;2023-02-10T09:10:14;79.27;;;39.97;;
7883;SDS011;3987;51.458;7.238;2023-02-10T09:25:15;87.40;;;40.37;;
7883;SDS011;3987;51.458;7.238;2023-02-10T09:40:23;82.67;;;41.17;;
7883;SDS011;3987;51.458;7.238;2023-02-10T10:10:37;74.80;;;36.47;;
7883;SDS011;3987;51.458;7.238;2023-02-10T10:41:03;69.23;;;35.23;;
7883;SDS011;3987;51.458;7.238;2023-02-10T10:56:06;67.43;;;34.07;;
7883;SDS011;3987;51.458;7.238;2023-02-10T11:11:13;62.90;;;33.20;;
7883;SDS011;3987;51.458;7.238;2023-02-10T11:26:22;59.60;;;32.43;;
7883;SDS011;3987;51.458;7.238;2023-02-10T11:41:28;57.87;;;31.03;;
7883;SDS011;3987;51.458;7.238;2023-02-10T11:56:32;54.60;;;30.93;;
7883;SDS011;3987;51.458;7.238;2023-02-10T12:58:08;44.43;;;23.63;;
7883;SDS011;3987;51.458;7.238;2023-02-10T13:13:39;36.77;;;21.10;;
7883;SDS011;3987;51.458;7.238;2023-02-10T13:43:54;36.77;;;19.27;;
7883;SDS011;3987;51.458;7.238;2023-02-10T14:14:25;30.47;;;16.03;;
7883;SDS011;3987;51.458;7.238;2023-02-10T14:29:31;36.53;;;20.17;;
7883;SDS011;3987;51.458;7.238;2023-02-10T14:44:44;47.77;;;24.20;;
7883;SDS011;3987;51.458;7.238;2023-02-10T14:59:56;39.87;;;22.27;;
7883;SDS011;3987;51.458;7.238;2023-02-10T15:15:02;44.87;;;24.27;;
7883;SDS011;3987;51.458;7.238;2023-02-10T15:30:05;46.70;;;26.60;;
7883;SDS011;3987;51.458;7.238;2023-02-10T15:45:14;37.10;;;23.90;;
7883;SDS011;3987;51.458;7.238;2023-02-10T16:15:24;36.90;;;22.10;;
7883;SDS011;3987;51.458;7.238;2023-02-10T16:30:26;32.97;;;21.83;;
7883;SDS011;3987;51.458;7.238;2023-02-10T16:45:29;32.30;;;22.10;;
7883;SDS011;3987;51.458;7.238;2023-02-10T17:00:32;37.17;;;23.83;;
7883;SDS011;3987;51.458;7.238;2023-02-10T17:15:32;33.00;;;21.00;;
7883;SDS011;3987;51.458;7.238;2023-02-10T17:30:33;33.97;;;20.93;;
7883;SDS011;3987;51.458;7.238;2023-02-10T17:45:40;33.83;;;21.73;;
7883;SDS011;3987;51.458;7.238;2023-02-10T18:00:40;32.97;;;20.77;;
7883;SDS011;3987;51.458;7.238;2023-02-10T18:15:41;27.37;;;18.30;;
7883;SDS011;3987;51.458;7.238;2023-02-10T18:30:45;24.60;;;19.33;;
7883;SDS011;3987;51.458;7.238;2023-02-10T18:45:47;30.10;;;19.50;;
7883;SDS011;3987;51.458;7.238;2023-02-10T19:00:48;40.17;;;21.47;;
7883;SDS011;3987;51.458;7.238;2023-02-10T19:15:49;35.87;;;21.90;;
7883;SDS011;3987;51.458;7.238;2023-02-10T19:30:52;34.63;;;23.13;;
7883;SDS011;3987;51.458;7.238;2023-02-10T19:45:53;48.10;;;26.50;;
7883;SDS011;3987;51.458;7.238;2023-02-10T20:00:57;49.97;;;27.77;;
7883;SDS011;3987;51.458;7.238;2023-02-10T20:16:01;53.50;;;29.37;;
7883;SDS011;3987;51.458;7.238;2023-02-10T20:31:01;52.13;;;29.17;;
7883;SDS011;3987;51.458;7.238;2023-02-10T20:46:04;54.73;;;27.87;;
7883;SDS011;3987;51.458;7.238;2023-02-10T21:01:07;51.37;;;27.20;;
7883;SDS011;3987;51.458;7.238;2023-02-10T21:16:09;59.67;;;28.23;;
7883;SDS011;3987;51.458;7.238;2023-02-10T21:31:12;53.97;;;28.37;;
7883;SDS011;3987;51.458;7.238;2023-02-10T21:46:17;54.63;;;28.47;;
7883;SDS011;3987;51.458;7.238;2023-02-10T22:01:17;58.33;;;29.73;;
7883;SDS011;3987;51.458;7.238;2023-02-10T22:16:18;51.83;;;29.33;;
7883;SDS011;3987;51.458;7.238;2023-02-10T22:31:23;58.47;;;29.80;;
7883;SDS011;3987;51.458;7.238;2023-02-10T22:46:29;60.13;;;30.90;;
7883;SDS011;3987;51.458;7.238;2023-02-10T23:01:37;49.80;;;28.63;;
7883;SDS011;3987;51.458;7.238;2023-02-10T23:16:38;60.67;;;29.93;;
7883;SDS011;3987;51.458;7.238;2023-02-10T23:31:39;59.13;;;31.30;;
7883;SDS011;3987;51.458;7.238;2023-02-10T23:46:40;58.67;;;29.10;;
